sensor_id;sensor_type;location;lat;lon;timestamp;P1;durP1;ratioP1;P2;durP2;ratioP2
18407;SDS011;9330;52.210;21.174;2023-05-29T00:01:13;8.27;;;4.30;;
18407;SDS011;9330;52.210;21.174;2023-05-29T00:03:43;8.00;;;4.60;;
18407;SDS011;9330;52.210;21.174;2023-05-29T00:06:10;6.63;;;4.50;;
18407;SDS011;9330;52.210;21.174;2023-05-29T00:08:37;6.80;;;4.10;;
18407;SDS011;9330;52.210;21.174;2023-05-29T00:11:04;6.32;;;4.40;;
18407;SDS011;9330;52.210;21.174;2023-05-29T00:13:31;6.40;;;4.07;;
18407;SDS011;9330;52.210;21.174;2023-05-29T00:15:59;10.25;;;4.93;;
18407;SDS011;9330;52.210;21.174;2023-05-29T00:18:28;8.48;;;4.93;;
18407;SDS011;9330;52.210;21.174;2023-05-29T00:20:55;8.82;;;4.70;;
18407;SDS011;9330;52.210;21.174;2023-05-29T00:23:22;9.63;;;4.82;;
18407;SDS011;9330;52.210;21.174;2023-05-29T00:25:49;10.70;;;4.97;;
18407;SDS011;9330;52.210;21.174;2023-05-29T00:28:16;6.75;;;4.53;;
18407;SDS011;9330;52.210;21.174;2023-05-29T00:30:43;9.73;;;4.35;;
18407;SDS011;9330;52.210;21.174;2023-05-29T00:33:11;7.20;;;4.90;;
18407;SDS011;9330;52.210;21.174;2023-05-29T00:35:38;6.93;;;4.47;;
18407;SDS011;9330;52.210;21.174;2023-05-29T00:38:05;7.90;;;4.78;;
18407;SDS011;9330;52.210;21.174;2023-05-29T00:40:32;9.68;;;4.95;;
18407;SDS011;9330;52.210;21.174;2023-05-29T00:42:59;7.55;;;4.50;;
18407;SDS011;9330;52.210;21.174;2023-05-29T00:45:25;9.20;;;5.40;;
18407;SDS011;9330;52.210;21.174;2023-05-29T00:47:52;8.95;;;4.75;;
18407;SDS011;9330;52.210;21.174;2023-05-29T00:50:21;8.30;;;5.28;;
18407;SDS011;9330;52.210;21.174;2023-05-29T00:52:50;9.15;;;5.13;;
18407;SDS011;9330;52.210;21.174;2023-05-29T00:55:17;6.75;;;5.00;;
18407;SDS011;9330;52.210;21.174;2023-05-29T00:57:43;7.63;;;5.10;;
18407;SDS011;9330;52.210;21.174;2023-05-29T01:00:12;7.28;;;4.90;;
18407;SDS011;9330;52.210;21.174;2023-05-29T01:02:39;7.82;;;4.93;;
18407;SDS011;9330;52.210;21.174;2023-05-29T01:05:09;6.78;;;4.40;;
18407;SDS011;9330;52.210;21.174;2023-05-29T01:07:37;8.75;;;4.88;;
18407;SDS011;9330;52.210;21.174;2023-05-29T01:10:05;9.65;;;5.40;;
18407;SDS011;9330;52.210;21.174;2023-05-29T01:12:35;10.38;;;5.25;;
18407;SDS011;9330;52.210;21.174;2023-05-29T01:15:11;7.35;;;4.68;;
18407;SDS011;9330;52.210;21.174;2023-05-29T01:17:47;8.57;;;5.00;;
18407;SDS011;9330;52.210;21.174;2023-05-29T01:20:31;7.85;;;4.13;;
18407;SDS011;9330;52.210;21.174;2023-05-29T01:23:08;9.60;;;5.13;;
18407;SDS011;9330;52.210;21.174;2023-05-29T01:25:58;7.07;;;4.60;;
18407;SDS011;9330;52.210;21.174;2023-05-29T01:28:41;7.57;;;4.97;;
18407;SDS011;9330;52.210;21.174;2023-05-29T01:31:10;7.95;;;4.80;;
18407;SDS011;9330;52.210;21.174;2023-05-29T01:33:39;6.60;;;4.80;;
18407;SDS011;9330;52.210;21.174;2023-05-29T01:36:07;9.07;;;4.63;;
18407;SDS011;9330;52.210;21.174;2023-05-29T01:38:34;6.38;;;4.85;;
18407;SDS011;9330;52.210;21.174;2023-05-29T01:41:01;8.73;;;4.82;;
18407;SDS011;9330;52.210;21.174;2023-05-29T01:43:29;7.75;;;4.57;;
18407;SDS011;9330;52.210;21.174;2023-05-29T01:45:58;6.18;;;4.43;;
18407;SDS011;9330;52.210;21.174;2023-05-29T01:48:26;9.00;;;5.10;;
18407;SDS011;9330;52.210;21.174;2023-05-29T01:50:54;10.70;;;4.80;;
18407;SDS011;9330;52.210;21.174;2023-05-29T01:53:21;6.82;;;4.75;;
18407;SDS011;9330;52.210;21.174;2023-05-29T01:55:48;8.25;;;5.10;;
18407;SDS011;9330;52.210;21.174;2023-05-29T01:58:16;8.15;;;4.82;;
18407;SDS011;9330;52.210;21.174;2023-05-29T02:00:46;6.88;;;4.53;;
18407;SDS011;9330;52.210;21.174;2023-05-29T02:03:15;7.25;;;5.13;;
18407;SDS011;9330;52.210;21.174;2023-05-29T02:05:41;6.25;;;4.50;;
18407;SDS011;9330;52.210;21.174;2023-05-29T02:08:08;8.05;;;5.22;;
18407;SDS011;9330;52.210;21.174;2023-05-29T02:10:35;8.20;;;4.60;;
18407;SDS011;9330;52.210;21.174;2023-05-29T02:13:02;7.40;;;4.28;;
18407;SDS011;9330;52.210;21.174;2023-05-29T02:15:29;9.82;;;4.82;;
18407;SDS011;9330;52.210;21.174;2023-05-29T02:17:56;9.55;;;4.88;;
18407;SDS011;9330;52.210;21.174;2023-05-29T02:20:24;6.88;;;5.03;;
18407;SDS011;9330;52.210;21.174;2023-05-29T02:22:52;7.20;;;4.68;;
18407;SDS011;9330;52.210;21.174;2023-05-29T02:25:18;7.80;;;4.95;;
18407;SDS011;9330;52.210;21.174;2023-05-29T02:27:45;6.90;;;5.13;;
18407;SDS011;9330;52.210;21.174;2023-05-29T02:30:12;6.72;;;4.68;;
18407;SDS011;9330;52.210;21.174;2023-05-29T02:32:40;6.25;;;4.60;;
18407;SDS011;9330;52.210;21.174;2023-05-29T02:35:07;10.50;;;5.10;;
18407;SDS011;9330;52.210;21.174;2023-05-29T02:37:35;6.70;;;4.68;;
18407;SDS011;9330;52.210;21.174;2023-05-29T02:40:03;6.55;;;4.68;;
18407;SDS011;9330;52.210;21.174;2023-05-29T02:42:31;6.72;;;4.80;;
18407;SDS011;9330;52.210;21.174;2023-05-29T02:44:58;8.25;;;4.95;;
18407;SDS011;9330;52.210;21.174;2023-05-29T02:47:25;9.82;;;5.07;;
18407;SDS011;9330;52.210;21.174;2023-05-29T02:49:52;7.88;;;4.50;;
18407;SDS011;9330;52.210;21.174;2023-05-29T02:52:18;8.52;;;4.63;;
18407;SDS011;9330;52.210;21.174;2023-05-29T02:54:47;6.97;;;5.07;;
18407;SDS011;9330;52.210;21.174;2023-05-29T02:57:14;7.20;;;4.97;;
18407;SDS011;9330;52.210;21.174;2023-05-29T02:59:40;9.95;;;5.22;;
18407;SDS011;9330;52.210;21.174;2023-05-29T03:02:09;6.95;;;4.70;;
18407;SDS011;9330;52.210;21.174;2023-05-29T03:04:36;11.40;;;5.55;;
18407;SDS011;9330;52.210;21.174;2023-05-29T03:07:03;10.23;;;5.18;;
18407;SDS011;9330;52.210;21.174;2023-05-29T03:09:31;6.97;;;5.57;;
18407;SDS011;9330;52.210;21.174;2023-05-29T03:11:59;7.15;;;5.07;;
18407;SDS011;9330;52.210;21.174;2023-05-29T03:14:27;7.03;;;5.15;;
18407;SDS011;9330;52.210;21.174;2023-05-29T03:16:54;8.65;;;5.45;;
18407;SDS011;9330;52.210;21.174;2023-05-29T03:19:21;8.52;;;5.45;;
18407;SDS011;9330;52.210;21.174;2023-05-29T03:21:48;6.70;;;5.15;;
18407;SDS011;9330;52.210;21.174;2023-05-29T03:24:15;9.43;;;5.20;;
18407;SDS011;9330;52.210;21.174;2023-05-29T03:26:42;7.07;;;5.15;;
18407;SDS011;9330;52.210;21.174;2023-05-29T03:29:10;7.22;;;5.18;;
18407;SDS011;9330;52.210;21.174;2023-05-29T03:31:37;5.82;;;4.80;;
18407;SDS011;9330;52.210;21.174;2023-05-29T03:34:04;8.25;;;5.65;;
18407;SDS011;9330;52.210;21.174;2023-05-29T03:36:31;8.80;;;5.20;;
18407;SDS011;9330;52.210;21.174;2023-05-29T03:38:58;8.93;;;5.50;;
18407;SDS011;9330;52.210;21.174;2023-05-29T03:41:25;7.38;;;4.53;;
18407;SDS011;9330;52.210;21.174;2023-05-29T03:43:52;6.25;;;5.00;;
18407;SDS011;9330;52.210;21.174;2023-05-29T03:46:20;8.52;;;4.80;;
18407;SDS011;9330;52.210;21.174;2023-05-29T03:48:46;8.65;;;6.00;;
18407;SDS011;9330;52.210;21.174;2023-05-29T03:51:13;8.32;;;5.25;;
18407;SDS011;9330;52.210;21.174;2023-05-29T03:53:41;7.03;;;4.88;;
18407;SDS011;9330;52.210;21.174;2023-05-29T03:56:07;6.97;;;5.10;;
18407;SDS011;9330;52.210;21.174;2023-05-29T03:58:34;9.30;;;5.55;;
18407;SDS011;9330;52.210;21.174;2023-05-29T04:01:02;8.05;;;5.47;;
18407;SDS011;9330;52.210;21.174;2023-05-29T04:03:30;7.95;;;5.00;;
18407;SDS011;9330;52.210;21.174;2023-05-29T04:05:57;8.18;;;5.15;;
18407;SDS011;9330;52.210;21.174;2023-05-29T04:08:24;7.28;;;4.85;;
18407;SDS011;9330;52.210;21.174;2023-05-29T04:10:51;6.85;;;5.13;;
18407;SDS011;9330;52.210;21.174;2023-05-29T04:13:19;6.72;;;4.97;;
18407;SDS011;9330;52.210;21.174;2023-05-29T04:15:46;9.48;;;5.75;;
18407;SDS011;9330;52.210;21.174;2023-05-29T04:18:13;6.80;;;4.97;;
18407;SDS011;9330;52.210;21.174;2023-05-29T04:20:41;5.97;;;4.55;;
18407;SDS011;9330;52.210;21.174;2023-05-29T04:23:10;8.13;;;5.00;;
18407;SDS011;9330;52.210;21.174;2023-05-29T04:25:37;10.15;;;5.22;;
18407;SDS011;9330;52.210;21.174;2023-05-29T04:28:04;10.80;;;5.03;;
18407;SDS011;9330;52.210;21.174;2023-05-29T04:30:31;9.32;;;4.93;;
18407;SDS011;9330;52.210;21.174;2023-05-29T04:32:58;7.22;;;4.53;;
18407;SDS011;9330;52.210;21.174;2023-05-29T04:35:25;9.77;;;5.13;;
18407;SDS011;9330;52.210;21.174;2023-05-29T04:37:54;10.73;;;5.50;;
18407;SDS011;9330;52.210;21.174;2023-05-29T04:40:22;7.22;;;5.03;;
18407;SDS011;9330;52.210;21.174;2023-05-29T04:42:49;8.57;;;4.93;;
18407;SDS011;9330;52.210;21.174;2023-05-29T04:45:19;7.28;;;4.72;;
18407;SDS011;9330;52.210;21.174;2023-05-29T04:47:47;6.75;;;4.78;;
18407;SDS011;9330;52.210;21.174;2023-05-29T04:50:15;6.38;;;4.15;;
18407;SDS011;9330;52.210;21.174;2023-05-29T04:52:42;4.68;;;4.15;;
18407;SDS011;9330;52.210;21.174;2023-05-29T04:55:11;7.85;;;4.65;;
18407;SDS011;9330;52.210;21.174;2023-05-29T04:57:38;7.50;;;4.40;;
18407;SDS011;9330;52.210;21.174;2023-05-29T05:00:06;5.68;;;3.88;;
18407;SDS011;9330;52.210;21.174;2023-05-29T05:02:36;9.15;;;4.40;;
18407;SDS011;9330;52.210;21.174;2023-05-29T05:05:04;8.70;;;3.83;;
18407;SDS011;9330;52.210;21.174;2023-05-29T05:07:31;4.38;;;3.08;;
18407;SDS011;9330;52.210;21.174;2023-05-29T05:09:58;4.43;;;2.78;;
18407;SDS011;9330;52.210;21.174;2023-05-29T05:12:26;4.30;;;2.40;;
18407;SDS011;9330;52.210;21.174;2023-05-29T05:14:54;3.85;;;2.20;;
18407;SDS011;9330;52.210;21.174;2023-05-29T05:17:21;3.60;;;2.53;;
18407;SDS011;9330;52.210;21.174;2023-05-29T05:19:48;4.00;;;1.88;;
18407;SDS011;9330;52.210;21.174;2023-05-29T05:22:17;5.80;;;2.00;;
18407;SDS011;9330;52.210;21.174;2023-05-29T05:24:44;5.55;;;2.67;;
18407;SDS011;9330;52.210;21.174;2023-05-29T05:27:11;3.42;;;2.40;;
18407;SDS011;9330;52.210;21.174;2023-05-29T05:29:39;4.03;;;2.40;;
18407;SDS011;9330;52.210;21.174;2023-05-29T05:32:06;3.00;;;2.33;;
18407;SDS011;9330;52.210;21.174;2023-05-29T05:34:33;4.70;;;2.60;;
18407;SDS011;9330;52.210;21.174;2023-05-29T05:37:00;5.38;;;2.20;;
18407;SDS011;9330;52.210;21.174;2023-05-29T05:39:27;5.97;;;2.35;;
18407;SDS011;9330;52.210;21.174;2023-05-29T05:41:54;4.82;;;2.40;;
18407;SDS011;9330;52.210;21.174;2023-05-29T05:44:21;5.45;;;2.58;;
18407;SDS011;9330;52.210;21.174;2023-05-29T05:46:49;6.05;;;2.70;;
18407;SDS011;9330;52.210;21.174;2023-05-29T05:49:17;3.40;;;2.28;;
18407;SDS011;9330;52.210;21.174;2023-05-29T05:51:44;3.90;;;2.63;;
18407;SDS011;9330;52.210;21.174;2023-05-29T05:54:10;4.65;;;2.42;;
18407;SDS011;9330;52.210;21.174;2023-05-29T05:56:37;6.38;;;2.45;;
18407;SDS011;9330;52.210;21.174;2023-05-29T05:59:04;5.50;;;2.20;;
18407;SDS011;9330;52.210;21.174;2023-05-29T06:01:31;3.25;;;2.25;;
18407;SDS011;9330;52.210;21.174;2023-05-29T06:03:59;4.22;;;1.80;;
18407;SDS011;9330;52.210;21.174;2023-05-29T06:06:26;3.67;;;1.92;;
18407;SDS011;9330;52.210;21.174;2023-05-29T06:08:53;4.68;;;2.45;;
18407;SDS011;9330;52.210;21.174;2023-05-29T06:11:21;5.68;;;2.10;;
18407;SDS011;9330;52.210;21.174;2023-05-29T06:13:48;2.65;;;1.70;;
18407;SDS011;9330;52.210;21.174;2023-05-29T06:16:15;4.47;;;2.05;;
18407;SDS011;9330;52.210;21.174;2023-05-29T06:18:42;3.17;;;1.92;;
18407;SDS011;9330;52.210;21.174;2023-05-29T06:21:11;4.82;;;1.70;;
18407;SDS011;9330;52.210;21.174;2023-05-29T06:23:38;3.53;;;2.00;;
18407;SDS011;9330;52.210;21.174;2023-05-29T06:26:06;4.78;;;2.22;;
18407;SDS011;9330;52.210;21.174;2023-05-29T06:28:33;3.25;;;2.10;;
18407;SDS011;9330;52.210;21.174;2023-05-29T06:31:00;4.95;;;2.20;;
18407;SDS011;9330;52.210;21.174;2023-05-29T06:33:27;3.45;;;1.95;;
18407;SDS011;9330;52.210;21.174;2023-05-29T06:35:54;4.60;;;2.17;;
18407;SDS011;9330;52.210;21.174;2023-05-29T06:38:23;4.00;;;1.90;;
18407;SDS011;9330;52.210;21.174;2023-05-29T06:40:49;4.18;;;2.05;;
18407;SDS011;9330;52.210;21.174;2023-05-29T06:43:16;6.15;;;1.70;;
18407;SDS011;9330;52.210;21.174;2023-05-29T06:45:43;4.07;;;2.08;;
18407;SDS011;9330;52.210;21.174;2023-05-29T06:48:10;5.25;;;1.80;;
18407;SDS011;9330;52.210;21.174;2023-05-29T06:50:37;3.08;;;1.80;;
18407;SDS011;9330;52.210;21.174;2023-05-29T06:53:04;4.97;;;1.77;;
18407;SDS011;9330;52.210;21.174;2023-05-29T06:55:32;4.57;;;1.60;;
18407;SDS011;9330;52.210;21.174;2023-05-29T06:57:59;2.60;;;1.40;;
18407;SDS011;9330;52.210;21.174;2023-05-29T07:00:25;6.10;;;1.77;;
18407;SDS011;9330;52.210;21.174;2023-05-29T07:02:53;3.92;;;1.30;;
18407;SDS011;9330;52.210;21.174;2023-05-29T07:05:20;4.53;;;1.63;;
18407;SDS011;9330;52.210;21.174;2023-05-29T07:07:47;2.78;;;1.20;;
18407;SDS011;9330;52.210;21.174;2023-05-29T07:10:14;2.08;;;1.15;;
18407;SDS011;9330;52.210;21.174;2023-05-29T07:12:42;2.05;;;1.08;;
18407;SDS011;9330;52.210;21.174;2023-05-29T07:15:09;2.55;;;1.02;;
18407;SDS011;9330;52.210;21.174;2023-05-29T07:17:36;2.30;;;1.20;;
18407;SDS011;9330;52.210;21.174;2023-05-29T07:20:03;1.65;;;1.08;;
18407;SDS011;9330;52.210;21.174;2023-05-29T07:22:32;4.35;;;1.30;;
18407;SDS011;9330;52.210;21.174;2023-05-29T07:24:59;4.75;;;1.40;;
18407;SDS011;9330;52.210;21.174;2023-05-29T07:27:26;3.78;;;1.20;;
18407;SDS011;9330;52.210;21.174;2023-05-29T07:29:55;2.70;;;1.27;;
18407;SDS011;9330;52.210;21.174;2023-05-29T07:32:21;5.65;;;1.35;;
18407;SDS011;9330;52.210;21.174;2023-05-29T07:34:48;3.83;;;1.42;;
18407;SDS011;9330;52.210;21.174;2023-05-29T07:37:15;4.18;;;1.40;;
18407;SDS011;9330;52.210;21.174;2023-05-29T07:39:44;3.33;;;1.58;;
18407;SDS011;9330;52.210;21.174;2023-05-29T07:42:11;3.80;;;1.30;;
18407;SDS011;9330;52.210;21.174;2023-05-29T07:44:37;1.88;;;1.20;;
18407;SDS011;9330;52.210;21.174;2023-05-29T07:47:08;3.85;;;1.40;;
18407;SDS011;9330;52.210;21.174;2023-05-29T07:49:35;3.50;;;1.20;;
18407;SDS011;9330;52.210;21.174;2023-05-29T07:52:02;2.00;;;1.10;;
18407;SDS011;9330;52.210;21.174;2023-05-29T07:54:29;3.20;;;1.52;;
18407;SDS011;9330;52.210;21.174;2023-05-29T07:56:57;3.58;;;1.10;;
18407;SDS011;9330;52.210;21.174;2023-05-29T07:59:24;3.10;;;1.13;;
18407;SDS011;9330;52.210;21.174;2023-05-29T08:01:51;4.00;;;1.63;;
18407;SDS011;9330;52.210;21.174;2023-05-29T08:04:20;6.30;;;1.80;;
18407;SDS011;9330;52.210;21.174;2023-05-29T08:06:46;4.05;;;1.30;;
18407;SDS011;9330;52.210;21.174;2023-05-29T08:09:13;4.45;;;1.42;;
18407;SDS011;9330;52.210;21.174;2023-05-29T08:11:40;3.33;;;1.60;;
18407;SDS011;9330;52.210;21.174;2023-05-29T08:14:07;4.15;;;1.40;;
18407;SDS011;9330;52.210;21.174;2023-05-29T08:16:34;2.67;;;1.20;;
18407;SDS011;9330;52.210;21.174;2023-05-29T08:19:01;2.97;;;1.17;;
18407;SDS011;9330;52.210;21.174;2023-05-29T08:21:30;7.38;;;1.88;;
18407;SDS011;9330;52.210;21.174;2023-05-29T08:23:57;3.75;;;1.52;;
18407;SDS011;9330;52.210;21.174;2023-05-29T08:26:24;2.45;;;1.13;;
18407;SDS011;9330;52.210;21.174;2023-05-29T08:28:52;2.42;;;1.25;;
18407;SDS011;9330;52.210;21.174;2023-05-29T08:31:19;3.35;;;1.20;;
18407;SDS011;9330;52.210;21.174;2023-05-29T08:33:45;3.65;;;1.30;;
18407;SDS011;9330;52.210;21.174;2023-05-29T08:36:12;5.20;;;1.30;;
18407;SDS011;9330;52.210;21.174;2023-05-29T08:38:41;2.20;;;1.00;;
18407;SDS011;9330;52.210;21.174;2023-05-29T08:41:07;5.07;;;1.40;;
18407;SDS011;9330;52.210;21.174;2023-05-29T08:43:36;2.58;;;1.15;;
18407;SDS011;9330;52.210;21.174;2023-05-29T08:46:06;3.60;;;1.10;;
18407;SDS011;9330;52.210;21.174;2023-05-29T08:48:34;4.93;;;1.20;;
18407;SDS011;9330;52.210;21.174;2023-05-29T08:51:04;3.00;;;1.10;;
18407;SDS011;9330;52.210;21.174;2023-05-29T08:53:34;2.35;;;1.20;;
18407;SDS011;9330;52.210;21.174;2023-05-29T08:56:03;3.20;;;1.40;;
18407;SDS011;9330;52.210;21.174;2023-05-29T08:58:30;2.65;;;1.45;;
18407;SDS011;9330;52.210;21.174;2023-05-29T09:00:59;4.75;;;1.45;;
18407;SDS011;9330;52.210;21.174;2023-05-29T09:03:27;6.85;;;1.42;;
18407;SDS011;9330;52.210;21.174;2023-05-29T09:05:57;2.40;;;1.20;;
18407;SDS011;9330;52.210;21.174;2023-05-29T09:08:25;3.40;;;1.45;;
18407;SDS011;9330;52.210;21.174;2023-05-29T09:10:53;2.58;;;1.27;;
18407;SDS011;9330;52.210;21.174;2023-05-29T09:13:23;4.85;;;1.40;;
18407;SDS011;9330;52.210;21.174;2023-05-29T09:15:50;2.10;;;1.40;;
18407;SDS011;9330;52.210;21.174;2023-05-29T09:18:23;4.45;;;1.30;;
18407;SDS011;9330;52.210;21.174;2023-05-29T09:20:54;3.75;;;1.40;;
18407;SDS011;9330;52.210;21.174;2023-05-29T09:23:21;2.85;;;1.40;;
18407;SDS011;9330;52.210;21.174;2023-05-29T09:25:51;1.90;;;1.27;;
18407;SDS011;9330;52.210;21.174;2023-05-29T09:28:18;3.45;;;1.45;;
18407;SDS011;9330;52.210;21.174;2023-05-29T09:30:51;3.22;;;1.70;;
18407;SDS011;9330;52.210;21.174;2023-05-29T09:33:17;2.00;;;1.25;;
18407;SDS011;9330;52.210;21.174;2023-05-29T09:35:45;3.25;;;1.17;;
18407;SDS011;9330;52.210;21.174;2023-05-29T09:38:13;2.38;;;1.10;;
18407;SDS011;9330;52.210;21.174;2023-05-29T09:40:41;5.20;;;1.67;;
18407;SDS011;9330;52.210;21.174;2023-05-29T09:43:11;3.42;;;1.48;;
18407;SDS011;9330;52.210;21.174;2023-05-29T09:45:39;2.95;;;1.27;;
18407;SDS011;9330;52.210;21.174;2023-05-29T09:48:08;8.15;;;1.70;;
18407;SDS011;9330;52.210;21.174;2023-05-29T09:50:39;3.75;;;1.35;;
18407;SDS011;9330;52.210;21.174;2023-05-29T09:53:15;2.20;;;1.33;;
18407;SDS011;9330;52.210;21.174;2023-05-29T09:55:47;2.75;;;1.00;;
18407;SDS011;9330;52.210;21.174;2023-05-29T09:58:15;1.98;;;1.50;;
18407;SDS011;9330;52.210;21.174;2023-05-29T10:00:43;3.13;;;1.30;;
18407;SDS011;9330;52.210;21.174;2023-05-29T10:03:12;1.88;;;1.15;;
18407;SDS011;9330;52.210;21.174;2023-05-29T10:05:39;4.53;;;1.52;;
18407;SDS011;9330;52.210;21.174;2023-05-29T10:08:07;2.60;;;1.42;;
18407;SDS011;9330;52.210;21.174;2023-05-29T10:10:37;3.22;;;1.40;;
18407;SDS011;9330;52.210;21.174;2023-05-29T10:13:06;3.63;;;1.23;;
18407;SDS011;9330;52.210;21.174;2023-05-29T10:15:39;2.67;;;1.30;;
18407;SDS011;9330;52.210;21.174;2023-05-29T10:18:11;2.70;;;1.45;;
18407;SDS011;9330;52.210;21.174;2023-05-29T10:20:45;3.10;;;1.55;;
18407;SDS011;9330;52.210;21.174;2023-05-29T10:23:16;2.50;;;1.30;;
18407;SDS011;9330;52.210;21.174;2023-05-29T10:25:47;2.03;;;1.15;;
18407;SDS011;9330;52.210;21.174;2023-05-29T10:28:18;3.92;;;1.45;;
18407;SDS011;9330;52.210;21.174;2023-05-29T10:30:45;2.80;;;1.30;;
18407;SDS011;9330;52.210;21.174;2023-05-29T10:33:24;5.03;;;1.80;;
18407;SDS011;9330;52.210;21.174;2023-05-29T10:36:04;1.70;;;1.15;;
18407;SDS011;9330;52.210;21.174;2023-05-29T10:38:40;2.63;;;1.35;;
18407;SDS011;9330;52.210;21.174;2023-05-29T10:41:28;3.47;;;1.38;;
18407;SDS011;9330;52.210;21.174;2023-05-29T10:43:56;3.63;;;1.67;;
18407;SDS011;9330;52.210;21.174;2023-05-29T10:49:26;2.75;;;1.25;;
18407;SDS011;9330;52.210;21.174;2023-05-29T10:51:53;3.33;;;1.40;;
18407;SDS011;9330;52.210;21.174;2023-05-29T10:54:21;2.70;;;1.38;;
18407;SDS011;9330;52.210;21.174;2023-05-29T10:56:51;3.47;;;1.35;;
18407;SDS011;9330;52.210;21.174;2023-05-29T10:59:21;4.13;;;1.60;;
18407;SDS011;9330;52.210;21.174;2023-05-29T11:01:51;2.53;;;1.50;;
18407;SDS011;9330;52.210;21.174;2023-05-29T11:04:26;4.50;;;1.67;;
18407;SDS011;9330;52.210;21.174;2023-05-29T11:06:59;5.47;;;1.58;;
18407;SDS011;9330;52.210;21.174;2023-05-29T11:09:29;3.38;;;1.40;;
18407;SDS011;9330;52.210;21.174;2023-05-29T11:12:10;6.35;;;1.77;;
18407;SDS011;9330;52.210;21.174;2023-05-29T11:14:45;2.50;;;1.42;;
18407;SDS011;9330;52.210;21.174;2023-05-29T11:17:28;2.78;;;1.35;;
18407;SDS011;9330;52.210;21.174;2023-05-29T11:20:02;2.38;;;1.45;;
18407;SDS011;9330;52.210;21.174;2023-05-29T11:22:34;5.18;;;1.90;;
18407;SDS011;9330;52.210;21.174;2023-05-29T11:25:18;1.45;;;1.35;;
18407;SDS011;9330;52.210;21.174;2023-05-29T11:27:46;5.78;;;1.88;;
18407;SDS011;9330;52.210;21.174;2023-05-29T11:30:13;6.10;;;1.90;;
18407;SDS011;9330;52.210;21.174;2023-05-29T11:32:40;4.07;;;1.80;;
18407;SDS011;9330;52.210;21.174;2023-05-29T11:35:12;3.60;;;1.60;;
18407;SDS011;9330;52.210;21.174;2023-05-29T11:37:40;2.17;;;1.50;;
18407;SDS011;9330;52.210;21.174;2023-05-29T11:40:10;4.50;;;1.55;;
18407;SDS011;9330;52.210;21.174;2023-05-29T11:42:42;3.95;;;1.52;;
18407;SDS011;9330;52.210;21.174;2023-05-29T11:45:14;2.67;;;2.00;;
18407;SDS011;9330;52.210;21.174;2023-05-29T11:47:51;5.25;;;1.60;;
18407;SDS011;9330;52.210;21.174;2023-05-29T11:50:20;4.45;;;1.95;;
18407;SDS011;9330;52.210;21.174;2023-05-29T11:52:48;3.40;;;1.90;;
18407;SDS011;9330;52.210;21.174;2023-05-29T11:55:16;5.35;;;2.03;;
18407;SDS011;9330;52.210;21.174;2023-05-29T11:57:43;4.15;;;2.13;;
18407;SDS011;9330;52.210;21.174;2023-05-29T12:00:12;4.32;;;1.88;;
18407;SDS011;9330;52.210;21.174;2023-05-29T12:02:40;8.15;;;2.22;;
18407;SDS011;9330;52.210;21.174;2023-05-29T12:05:08;6.57;;;2.03;;
18407;SDS011;9330;52.210;21.174;2023-05-29T12:07:46;2.88;;;1.67;;
18407;SDS011;9330;52.210;21.174;2023-05-29T12:10:14;3.00;;;2.08;;
18407;SDS011;9330;52.210;21.174;2023-05-29T12:12:42;4.82;;;1.83;;
18407;SDS011;9330;52.210;21.174;2023-05-29T12:15:12;5.47;;;2.25;;
18407;SDS011;9330;52.210;21.174;2023-05-29T12:17:40;3.50;;;1.73;;
18407;SDS011;9330;52.210;21.174;2023-05-29T12:20:08;3.33;;;1.90;;
18407;SDS011;9330;52.210;21.174;2023-05-29T12:22:38;3.50;;;1.80;;
18407;SDS011;9330;52.210;21.174;2023-05-29T12:25:09;3.70;;;1.80;;
18407;SDS011;9330;52.210;21.174;2023-05-29T12:27:37;2.75;;;1.70;;
18407;SDS011;9330;52.210;21.174;2023-05-29T12:30:08;3.17;;;1.88;;
18407;SDS011;9330;52.210;21.174;2023-05-29T12:32:36;2.97;;;1.52;;
18407;SDS011;9330;52.210;21.174;2023-05-29T12:35:11;3.78;;;2.00;;
18407;SDS011;9330;52.210;21.174;2023-05-29T12:37:43;4.47;;;2.38;;
18407;SDS011;9330;52.210;21.174;2023-05-29T12:40:14;37.58;;;5.10;;
18407;SDS011;9330;52.210;21.174;2023-05-29T12:42:42;5.85;;;2.25;;
18407;SDS011;9330;52.210;21.174;2023-05-29T12:45:09;4.80;;;1.92;;
18407;SDS011;9330;52.210;21.174;2023-05-29T12:47:37;4.70;;;2.17;;
18407;SDS011;9330;52.210;21.174;2023-05-29T12:50:04;4.43;;;1.70;;
18407;SDS011;9330;52.210;21.174;2023-05-29T12:52:48;8.25;;;2.20;;
18407;SDS011;9330;52.210;21.174;2023-05-29T12:55:19;5.80;;;2.80;;
18407;SDS011;9330;52.210;21.174;2023-05-29T12:57:46;3.35;;;2.10;;
18407;SDS011;9330;52.210;21.174;2023-05-29T13:00:13;4.03;;;1.95;;
18407;SDS011;9330;52.210;21.174;2023-05-29T13:02:41;3.75;;;2.55;;
18407;SDS011;9330;52.210;21.174;2023-05-29T13:05:08;5.25;;;2.58;;
18407;SDS011;9330;52.210;21.174;2023-05-29T13:07:35;5.40;;;2.22;;
18407;SDS011;9330;52.210;21.174;2023-05-29T13:10:03;5.10;;;2.30;;
18407;SDS011;9330;52.210;21.174;2023-05-29T13:12:31;4.47;;;2.40;;
18407;SDS011;9330;52.210;21.174;2023-05-29T13:14:58;7.03;;;2.35;;
18407;SDS011;9330;52.210;21.174;2023-05-29T13:17:24;5.68;;;2.35;;
18407;SDS011;9330;52.210;21.174;2023-05-29T13:19:51;3.75;;;2.03;;
18407;SDS011;9330;52.210;21.174;2023-05-29T13:22:18;6.53;;;2.30;;
18407;SDS011;9330;52.210;21.174;2023-05-29T13:24:45;3.88;;;1.73;;
18407;SDS011;9330;52.210;21.174;2023-05-29T13:27:13;3.72;;;2.50;;
18407;SDS011;9330;52.210;21.174;2023-05-29T13:29:41;7.20;;;2.20;;
18407;SDS011;9330;52.210;21.174;2023-05-29T13:32:08;4.18;;;2.30;;
18407;SDS011;9330;52.210;21.174;2023-05-29T13:34:35;2.90;;;2.03;;
18407;SDS011;9330;52.210;21.174;2023-05-29T13:37:02;6.55;;;2.53;;
18407;SDS011;9330;52.210;21.174;2023-05-29T13:39:29;3.88;;;2.10;;
18407;SDS011;9330;52.210;21.174;2023-05-29T13:41:55;6.22;;;2.72;;
18407;SDS011;9330;52.210;21.174;2023-05-29T13:44:24;4.75;;;2.50;;
18407;SDS011;9330;52.210;21.174;2023-05-29T13:46:50;7.57;;;2.00;;
18407;SDS011;9330;52.210;21.174;2023-05-29T13:49:18;3.55;;;2.00;;
18407;SDS011;9330;52.210;21.174;2023-05-29T13:51:45;3.03;;;2.10;;
18407;SDS011;9330;52.210;21.174;2023-05-29T13:54:13;10.13;;;2.42;;
18407;SDS011;9330;52.210;21.174;2023-05-29T13:56:41;4.32;;;2.03;;
18407;SDS011;9330;52.210;21.174;2023-05-29T13:59:08;6.88;;;2.20;;
18407;SDS011;9330;52.210;21.174;2023-05-29T14:01:36;4.18;;;2.15;;
18407;SDS011;9330;52.210;21.174;2023-05-29T14:04:03;3.67;;;1.90;;
18407;SDS011;9330;52.210;21.174;2023-05-29T14:06:30;3.65;;;2.17;;
18407;SDS011;9330;52.210;21.174;2023-05-29T14:08:57;4.25;;;2.20;;
18407;SDS011;9330;52.210;21.174;2023-05-29T14:11:24;3.15;;;1.95;;
18407;SDS011;9330;52.210;21.174;2023-05-29T14:13:51;4.15;;;2.08;;
18407;SDS011;9330;52.210;21.174;2023-05-29T14:16:18;3.22;;;1.95;;
18407;SDS011;9330;52.210;21.174;2023-05-29T14:18:47;7.03;;;2.70;;
18407;SDS011;9330;52.210;21.174;2023-05-29T14:21:15;5.22;;;2.35;;
18407;SDS011;9330;52.210;21.174;2023-05-29T14:23:41;3.70;;;2.03;;
18407;SDS011;9330;52.210;21.174;2023-05-29T14:26:08;3.15;;;1.85;;
18407;SDS011;9330;52.210;21.174;2023-05-29T14:28:35;2.47;;;1.90;;
18407;SDS011;9330;52.210;21.174;2023-05-29T14:31:03;4.60;;;2.03;;
18407;SDS011;9330;52.210;21.174;2023-05-29T14:33:30;8.65;;;2.20;;
18407;SDS011;9330;52.210;21.174;2023-05-29T14:35:59;6.30;;;2.45;;
18407;SDS011;9330;52.210;21.174;2023-05-29T14:38:26;2.67;;;1.88;;
18407;SDS011;9330;52.210;21.174;2023-05-29T14:40:52;4.22;;;1.92;;
18407;SDS011;9330;52.210;21.174;2023-05-29T14:43:19;4.53;;;2.75;;
18407;SDS011;9330;52.210;21.174;2023-05-29T14:45:47;8.63;;;1.70;;
18407;SDS011;9330;52.210;21.174;2023-05-29T14:48:13;3.50;;;2.28;;
18407;SDS011;9330;52.210;21.174;2023-05-29T14:50:41;3.67;;;1.70;;
18407;SDS011;9330;52.210;21.174;2023-05-29T14:53:09;4.85;;;2.30;;
18407;SDS011;9330;52.210;21.174;2023-05-29T14:55:36;3.67;;;1.92;;
18407;SDS011;9330;52.210;21.174;2023-05-29T14:58:04;2.50;;;1.73;;